METAR Data

Data at: 0047 UTC 23 Mar 2019

METAR for:KLGA (New York/La Guardia, NY, US)
Text:KLGA 222351Z 27017G25KT 10SM FEW040 SCT060 07/M02 A2945 RMK AO2 PK WND 27029/2327 SLP972 60000 T00721022 10094 20067 53026
Temperature: 7.2°C ( 45°F)
Dewpoint: -2.2°C ( 28°F) [RH = 51%]
Pressure (altimeter):29.45 inches Hg ( 997.4 mb) [Sea level pressure: 997.2 mb]
Winds:from the W (270 degrees) at 20 MPH (17 knots; 8.7 m/s) gusting to 29 MPH (25 knots; 12.9 m/s)
Visibility:10 or more sm (16+ km)
Ceiling:at least 12,000 feet AGL
Clouds: few clouds at 4000 feet AGL, scattered clouds at 6000 feet AGL